createdAt,value
2019-05-21T00:02:47.173Z,98820.11
2019-05-21T00:07:50.962Z,98829.16
2019-05-21T00:12:54.772Z,98829.16
2019-05-21T00:17:58.694Z,98830.72
2019-05-21T00:23:02.493Z,98830.72
2019-05-21T00:28:42.643Z,98846.70
2019-05-21T00:34:22.448Z,98853.59
2019-05-21T00:40:02.761Z,98849.84
2019-05-21T00:45:08.561Z,98862.12
2019-05-21T00:50:12.352Z,98865.83
2019-05-21T00:55:16.122Z,98860.28
2019-05-21T01:00:19.905Z,98860.28
2019-05-21T01:05:23.685Z,98864.47
2019-05-21T01:10:27.447Z,98864.47
2019-05-21T01:15:31.207Z,98875.75
2019-05-21T01:20:34.970Z,98883.12
2019-05-21T01:25:38.744Z,98878.41
2019-05-21T01:30:42.507Z,98891.02
2019-05-21T01:35:46.288Z,98890.02
2019-05-21T01:40:50.089Z,98890.02
2019-05-21T01:45:53.879Z,98898.09
2019-05-21T01:50:57.681Z,98898.06
2019-05-21T01:56:01.467Z,98901.59
2019-05-21T02:01:05.296Z,98906.98
2019-05-21T02:06:09.432Z,98906.98
2019-05-21T02:11:13.246Z,98904.29
2019-05-21T02:16:17.041Z,98896.39
2019-05-21T02:21:20.817Z,98898.07
2019-05-21T02:26:24.613Z,98891.17
2019-05-21T02:31:28.420Z,98896.05
2019-05-21T02:36:32.204Z,98892.02
2019-05-21T02:41:35.988Z,98898.91
2019-05-21T02:46:39.802Z,98894.38
2019-05-21T02:51:43.599Z,98895.72
2019-05-21T02:56:47.386Z,98902.44
2019-05-21T03:01:57.855Z,98902.44
2019-05-21T03:07:20.233Z,98904.63
2019-05-21T03:12:24.036Z,98913.53
2019-05-21T03:17:27.848Z,98913.03
2019-05-21T03:22:31.608Z,98913.03
2019-05-21T03:27:35.423Z,98904.97
2019-05-21T03:32:39.243Z,98908.16
2019-05-21T03:37:43.059Z,98910.52
2019-05-21T03:42:46.915Z,98925.92
2019-05-21T03:47:50.717Z,98927.73
2019-05-21T03:52:54.493Z,98921.41
2019-05-21T03:57:58.300Z,98928.77
2019-05-21T04:03:02.099Z,98928.77
2019-05-21T04:08:06.031Z,98938.02
2019-05-21T04:13:09.940Z,98935.13
2019-05-21T04:18:19.173Z,98952.61
2019-05-21T04:23:22.955Z,98956.30
2019-05-21T04:28:26.783Z,98952.27
2019-05-21T04:33:30.591Z,98957.65
2019-05-21T04:38:34.374Z,98964.23
2019-05-21T04:43:38.143Z,98969.11
2019-05-21T04:48:41.933Z,98974.99
2019-05-21T04:53:45.858Z,98981.20
2019-05-21T04:58:49.738Z,98981.20
2019-05-21T05:03:53.730Z,98987.94
2019-05-21T05:08:57.534Z,98998.19
2019-05-21T05:14:01.370Z,99007.94
2019-05-21T05:19:05.284Z,99007.94
2019-05-21T05:24:09.157Z,99018.69
2019-05-21T05:29:12.946Z,99018.69
2019-05-21T05:34:16.795Z,99017.34
2019-05-21T05:39:20.579Z,98995.79
2019-05-21T05:44:24.540Z,99012.31
2019-05-21T05:49:33.499Z,99012.31
2019-05-21T05:54:37.324Z,99018.02
2019-05-21T05:59:41.145Z,99024.41
2019-05-21T06:04:44.963Z,99032.81
2019-05-21T06:09:48.782Z,99038.69
2019-05-21T06:14:52.592Z,99035.00
2019-05-21T06:19:56.373Z,99040.72
2019-05-21T06:25:00.160Z,99039.38
2019-05-21T06:30:04.161Z,99042.06
2019-05-21T06:35:07.941Z,99044.25
2019-05-21T06:40:11.727Z,99044.25
2019-05-21T06:45:15.592Z,99063.41
2019-05-21T06:50:19.374Z,99066.67
2019-05-21T06:55:23.256Z,99066.67
2019-05-21T07:00:27.171Z,99098.45
2019-05-21T07:05:30.939Z,99098.05
2019-05-21T07:10:34.720Z,99104.81
2019-05-21T07:15:38.525Z,99096.81
2019-05-21T07:20:42.298Z,99100.70
2019-05-21T07:25:46.072Z,99109.65
2019-05-21T07:30:49.965Z,99112.27
2019-05-21T07:35:53.741Z,99116.72
2019-05-21T07:40:57.538Z,99116.45
2019-05-21T07:46:01.310Z,99126.72
2019-05-21T07:51:05.132Z,99122.53
2019-05-21T07:56:08.906Z,99133.67
2019-05-21T08:01:12.740Z,99134.85
2019-05-21T08:06:16.522Z,99141.41
2019-05-21T08:11:20.321Z,99131.34
2019-05-21T08:16:24.091Z,99134.53
2019-05-21T08:21:27.979Z,99135.03
2019-05-21T08:26:31.780Z,99137.06
2019-05-21T08:31:35.687Z,99143.99
2019-05-21T08:36:39.526Z,99144.16
2019-05-21T08:41:43.317Z,99144.16
2019-05-21T08:46:47.346Z,99155.37
2019-05-21T08:51:51.120Z,99155.37
2019-05-21T08:56:54.889Z,99161.63
2019-05-21T09:01:59.279Z,99161.63
2019-05-21T09:07:03.170Z,99171.50
2019-05-21T09:12:06.964Z,99173.44
2019-05-21T09:17:10.749Z,99173.44
2019-05-21T09:22:14.638Z,99179.47
2019-05-21T09:27:18.450Z,99183.50
2019-05-21T09:32:22.266Z,99184.53
2019-05-21T09:37:26.046Z,99183.95
2019-05-21T09:42:29.859Z,99183.95
2019-05-21T09:47:33.714Z,99192.98
2019-05-21T09:52:37.475Z,99186.18
2019-05-21T09:58:12.623Z,99203.27
2019-05-21T10:03:18.186Z,99209.31
2019-05-21T10:08:21.970Z,99202.30
2019-05-21T10:13:25.743Z,99213.92
2019-05-21T10:18:29.657Z,99221.53
2019-05-21T10:23:33.426Z,99223.31
2019-05-21T10:28:37.307Z,99225.03
2019-05-21T10:33:41.082Z,99229.84
2019-05-21T10:38:44.884Z,99235.59
2019-05-21T10:43:48.714Z,99233.03
2019-05-21T10:48:52.594Z,99234.81
2019-05-21T10:53:56.367Z,99234.81
2019-05-21T10:59:00.133Z,99240.56
2019-05-21T11:04:29.118Z,99244.11
2019-05-21T11:09:33.402Z,99246.19
2019-05-21T11:14:37.561Z,99245.56
2019-05-21T11:19:41.541Z,99243.90
2019-05-21T11:24:45.324Z,99247.73
2019-05-21T11:29:49.182Z,99247.73
2019-05-21T11:34:53.037Z,99255.59
2019-05-21T11:39:56.831Z,99253.90
2019-05-21T11:45:00.619Z,99253.90
2019-05-21T11:50:04.882Z,99257.15
2019-05-21T11:55:08.736Z,99258.77
2019-05-21T12:00:12.817Z,99258.82
2019-05-21T12:05:16.826Z,99258.82
2019-05-21T12:10:20.700Z,99262.94
2019-05-21T12:15:24.519Z,99262.94
2019-05-21T12:20:36.677Z,99268.21
2019-05-21T12:25:33.783Z,99267.20
2019-05-21T12:30:37.631Z,99264.20
2019-05-21T12:35:41.419Z,99264.20
2019-05-21T12:40:45.199Z,99270.63
2019-05-21T12:45:49.097Z,99270.80
2019-05-21T12:50:52.931Z,99264.34
2019-05-21T12:55:56.796Z,99264.34
2019-05-21T13:01:00.583Z,99275.02
2019-05-21T13:06:04.460Z,99280.73
2019-05-21T13:11:08.254Z,99277.72
2019-05-21T13:16:12.018Z,99281.47
2019-05-21T13:21:15.791Z,99281.47
2019-05-21T13:26:19.617Z,99281.97
2019-05-21T13:31:23.450Z,99287.72
2019-05-21T13:36:27.219Z,99293.62
2019-05-21T13:41:31.038Z,99299.84
2019-05-21T13:46:35.737Z,99303.41
2019-05-21T13:51:39.735Z,99303.41
2019-05-21T13:56:43.507Z,99308.13
2019-05-21T14:01:47.329Z,99306.78
2019-05-21T14:06:51.117Z,99306.96
2019-05-21T14:11:54.970Z,99309.15
2019-05-21T14:16:58.742Z,99309.15
2019-05-21T14:22:02.659Z,99298.87
2019-05-21T14:27:06.687Z,99312.23
2019-05-21T14:32:10.614Z,99316.61
2019-05-21T14:37:14.404Z,99311.43
2019-05-21T14:42:18.175Z,99311.43
2019-05-21T14:47:21.965Z,99318.05
2019-05-21T14:52:25.757Z,99314.53
2019-05-21T14:57:29.522Z,99309.86
2019-05-21T15:02:36.934Z,99317.61
2019-05-21T15:07:38.902Z,99314.03
2019-05-21T15:12:42.785Z,99316.77
2019-05-21T15:17:46.558Z,99318.12
2019-05-21T15:22:50.592Z,99319.46
2019-05-21T15:27:54.376Z,99319.46
2019-05-21T15:32:58.145Z,99316.28
2019-05-21T15:38:01.917Z,99312.99
2019-05-21T15:43:07.264Z,99322.77
2019-05-21T15:48:11.037Z,99329.84
2019-05-21T15:53:14.896Z,99338.09
2019-05-21T15:58:18.733Z,99343.19
2019-05-21T16:03:22.586Z,99341.84
2019-05-21T16:08:26.404Z,99356.84
2019-05-21T16:13:30.212Z,99356.84
2019-05-21T16:18:33.985Z,99363.84
2019-05-21T16:23:37.751Z,99374.29
2019-05-21T16:28:41.519Z,99374.29
2019-05-21T16:33:45.406Z,99370.63
2019-05-21T16:38:49.265Z,99370.63
2019-05-21T16:43:53.180Z,99373.71
2019-05-21T16:48:57.117Z,99374.55
2019-05-21T16:54:01.209Z,99376.74
2019-05-21T16:59:05.013Z,99376.74
2019-05-21T17:04:08.878Z,99382.19
2019-05-21T17:09:13.415Z,99389.63
2019-05-21T17:14:17.254Z,99389.63
2019-05-21T17:19:21.086Z,99401.11
2019-05-21T17:24:25.017Z,99410.88
2019-05-21T17:29:28.790Z,99425.28
2019-05-21T17:34:32.584Z,99425.28
2019-05-21T17:39:36.383Z,99439.05
2019-05-21T17:44:40.243Z,99439.05
2019-05-21T17:49:44.017Z,99446.02
2019-05-21T17:54:56.929Z,99446.25
2019-05-21T17:59:53.301Z,99459.97
2019-05-21T18:04:58.168Z,99467.47
2019-05-21T18:10:02.050Z,99467.47
2019-05-21T18:15:07.811Z,99470.16
2019-05-21T18:20:11.833Z,99494.72
2019-05-21T18:25:15.810Z,99497.94
2019-05-21T18:30:19.993Z,99524.82
2019-05-21T18:35:23.766Z,99529.39
2019-05-21T18:40:27.623Z,99532.98
2019-05-21T18:45:31.388Z,99549.74
2019-05-21T18:50:37.012Z,99551.67
2019-05-21T18:55:40.755Z,99569.61
2019-05-21T19:00:44.620Z,99569.61
2019-05-21T19:05:48.407Z,99582.14
2019-05-21T19:10:52.203Z,99589.48
2019-05-21T19:15:55.978Z,99617.83
2019-05-21T19:20:59.761Z,99617.67
2019-05-21T19:26:03.526Z,99617.67
2019-05-21T19:31:08.937Z,99642.25
2019-05-21T19:36:13.029Z,99655.69
2019-05-21T19:41:16.929Z,99655.38
2019-05-21T19:46:20.737Z,99665.52
2019-05-21T19:51:24.540Z,99665.52
2019-05-21T19:56:28.287Z,99685.80
2019-05-21T20:01:32.073Z,99685.80
2019-05-21T20:06:35.954Z,99692.73
2019-05-21T20:11:39.725Z,99695.92
2019-05-21T20:16:43.564Z,99695.92
2019-05-21T20:21:47.387Z,99701.45
2019-05-21T20:26:51.627Z,99701.45
2019-05-21T20:31:55.563Z,99712.19
2019-05-21T20:36:59.815Z,99708.99
2019-05-21T20:42:05.393Z,99707.99
2019-05-21T20:47:10.887Z,99713.19
2019-05-21T20:52:18.533Z,99712.19
2019-05-21T20:57:20.555Z,99712.19
2019-05-21T21:02:24.406Z,99718.26
2019-05-21T21:07:28.187Z,99718.26
2019-05-21T21:12:32.261Z,99723.08
2019-05-21T21:17:36.046Z,99741.64
2019-05-21T21:22:39.906Z,99743.84
2019-05-21T21:27:43.682Z,99755.45
2019-05-21T21:32:47.672Z,99760.84
2019-05-21T21:37:51.514Z,99760.84
2019-05-21T21:42:55.365Z,99757.61
2019-05-21T21:47:59.187Z,99757.61
2019-05-21T21:53:03.139Z,99749.72
2019-05-21T21:58:06.896Z,99753.91
2019-05-21T22:03:10.828Z,99753.91
2019-05-21T22:08:14.656Z,99763.84
2019-05-21T22:13:18.880Z,99763.84
2019-05-21T22:18:24.143Z,99778.99
2019-05-21T22:23:27.957Z,99766.38
2019-05-21T22:28:31.830Z,99776.30
2019-05-21T22:33:36.768Z,99776.30
2019-05-21T22:38:41.543Z,99782.53
2019-05-21T22:43:45.407Z,99781.69
2019-05-21T22:48:49.332Z,99781.69
2019-05-21T22:53:53.103Z,99776.30
2019-05-21T22:58:56.916Z,99776.30
2019-05-21T23:04:00.962Z,99771.06
2019-05-21T23:09:06.063Z,99777.99
2019-05-21T23:14:09.838Z,99765.03
2019-05-21T23:19:15.295Z,99765.30
2019-05-21T23:24:21.497Z,99767.38
2019-05-21T23:29:25.789Z,99767.38
2019-05-21T23:34:29.549Z,99766.38
2019-05-21T23:39:34.814Z,99765.30
2019-05-21T23:44:38.617Z,99767.38
2019-05-21T23:49:42.516Z,99769.34
2019-05-21T23:54:46.292Z,99782.30
2019-05-21T23:59:50.741Z,99782.30
